Tropical Cyclones
[Index]
Main Index Home Page Stock Weather Photos Extreme Storms Discussion Storm News and Storm Chasing Reports Tropical Cyclones / Hurricanes / Typhoons Weather Data and Links Wild Fires / Bushfires Weather Observation Techniques Weather Picture Catalogue Tornado Pictures and Reports Stock Video Footage and DVDs for sale
Season 1993-1994 Tropical Cyclone QUENTON Track Map
Season 1993-1994 Summaries: [BoM-AU] [JTWC-AU] [JTWC-SIO] [JTWC-SPAC] [JTWC-SH]
<<- Previous TC | BoM 1993-1994 Season | Next TC ->>

click for intensity scale information  Lat/long Grid: Show Hide

 Date Labels: Show Hide

Bureau of Meteorology Tropical Cyclone Data

Name: QUENTON
Number: 765 / 199394_05

23 Jan 1994 00:00 UTC to 28 Jan 1994 12:00 UTC

    date/time    lat    long    hPa   cat  kts
1994-01-23 00   10.5   110.2   1005         19          
1994-01-24 00   12.1   108.8   1002         23          
1994-01-24 12   12.8   107.5   1000         27          
1994-01-25 00   12.8   106.6    995    1    35          
1994-01-25 06   12.9   106.6    990    1    41          
1994-01-25 12   13.0   106.6    985    2    47          
1994-01-25 15   13.3   106.5    980    2    54          
1994-01-25 18   13.7   106.5    975    2    60          
1994-01-25 21   14.0   106.5    970    3    66          
1994-01-26 00   14.4   106.4    965    3    70          
1994-01-26 03   14.7   106.2    965    3    70          
1994-01-26 06   15.1   105.9    960    3    76          
1994-01-26 09   15.6   105.6    955    4    80          
1994-01-26 12   16.1   105.1    955    4    80          
1994-01-26 15   16.6   104.6    960    3    76          
1994-01-26 18   17.0   104.2    965    3    70          
1994-01-26 21   17.4   103.8    970    3    66          
1994-01-27 00   17.8   103.3    975    2    60          
1994-01-27 03   18.1   102.9    980    2    54          
1994-01-27 06   18.4   102.5    985    2    47          
1994-01-27 09   18.6   102.0    990    1    41          
1994-01-27 12   18.9   101.5    990    1    41          
1994-01-27 15   19.2   101.0    995    1    35          
1994-01-27 18   19.6   100.4   1000         27          
1994-01-27 21   20.0    99.7   1000         27          
1994-01-28 00   20.3    99.1   1005         19          
1994-01-28 12   21.2    96.9   1010                     
Winds are 10-min average.

Tropical cyclone tracks developed by Michael Bath using data from the Bureau of Meteorology and Google Maps.


[Australian Severe Weather index] [Copyright Notice] [Email Contacts] [Search This Site] [Privacy Policy]
Document: tropical_cyclone_quenton.htm Updated: 30 May 2013